Terminal Aerodrome Forecast
Issued by NWS

Home | Current Version | Previous Version | Text Only | Print | Product List | Glossary On
Versions: 1 2 3 4 5 6 7 8 9 10 11 12 13
000
FTUS44 KTSA 021700
TAFFYV
TAF
KFYV 021720Z 0218/0318 18012G22KT P6SM VCTS FEW025 OVC050CB
      TEMPO 0219/0223 2SM +TSRA BKN025CB
     FM030000 27010KT P6SM VCTS BKN040CB
     FM030300 31008KT P6SM OVC015
     FM031500 33012G20KT P6SM SCT015=

USA.gov is the U.S. government's official web portal to all federal, state and local government web resources and services.